Terminal Aerodrome Forecast
Issued by NWS

Home | Current Version | Previous Version | Graphics & Text | Print | Product List | Glossary On
Versions: 1 2 3 4 5 6 7 8 9 10 11 12 13 14 15
000
FTUS43 KICT 241720 AAA
TAFSLN
TAF AMD
KSLN 241720Z 2417/2518 33010KT P6SM SCT040
     FM250000 VRB03KT P6SM FEW120
     FM251400 17010KT P6SM FEW200
     FM251600 18012G20KT P6SM FEW040=

USA.gov is the U.S. government's official web portal to all federal, state and local government web resources and services.